sensor_id;sensor_type;location;lat;lon;timestamp;pressure;altitude;pressure_sealevel;temperature;humidity
72428;BME280;60419;48.880;18.036;2023-02-28T00:01:50;100095.03;;;-2.33;62.65
72428;BME280;60419;48.880;18.036;2023-02-28T00:04:35;100106.38;;;-2.39;63.05
72428;BME280;60419;48.880;18.036;2023-02-28T00:07:20;100088.81;;;-2.12;62.13
72428;BME280;60419;48.880;18.036;2023-02-28T00:10:09;100106.41;;;-2.32;62.88
72428;BME280;60419;48.880;18.036;2023-02-28T00:12:59;100092.84;;;-2.16;61.70
72428;BME280;60419;48.880;18.036;2023-02-28T00:15:44;100098.53;;;-2.19;62.75
72428;BME280;60419;48.880;18.036;2023-02-28T00:18:30;100106.13;;;-2.09;62.46
72428;BME280;60419;48.880;18.036;2023-02-28T00:21:16;100103.78;;;-2.25;62.13
72428;BME280;60419;48.880;18.036;2023-02-28T00:24:02;100105.91;;;-2.14;62.67
72428;BME280;60419;48.880;18.036;2023-02-28T00:26:47;100099.53;;;-2.26;63.28
72428;BME280;60419;48.880;18.036;2023-02-28T00:29:33;100092.59;;;-2.27;62.35
72428;BME280;60419;48.880;18.036;2023-02-28T00:32:18;100098.03;;;-2.36;62.40
72428;BME280;60419;48.880;18.036;2023-02-28T00:35:05;100105.88;;;-2.56;63.55
72428;BME280;60419;48.880;18.036;2023-02-28T00:37:51;100096.75;;;-2.46;63.79
72428;BME280;60419;48.880;18.036;2023-02-28T00:40:36;100098.00;;;-2.42;62.63
72428;BME280;60419;48.880;18.036;2023-02-28T00:43:21;100093.44;;;-2.55;62.88
72428;BME280;60419;48.880;18.036;2023-02-28T00:46:07;100058.59;;;-2.65;63.23
72428;BME280;60419;48.880;18.036;2023-02-28T00:48:53;100089.25;;;-2.43;62.94
72428;BME280;60419;48.880;18.036;2023-02-28T00:51:38;100097.94;;;-2.56;63.97
72428;BME280;60419;48.880;18.036;2023-02-28T00:54:24;100097.44;;;-2.66;63.88
72428;BME280;60419;48.880;18.036;2023-02-28T00:57:09;100091.13;;;-2.37;63.50
72428;BME280;60419;48.880;18.036;2023-02-28T00:59:54;100101.53;;;-2.63;63.97
72428;BME280;60419;48.880;18.036;2023-02-28T01:02:40;100091.13;;;-2.71;63.73
72428;BME280;60419;48.880;18.036;2023-02-28T01:05:25;100096.28;;;-2.57;64.03
72428;BME280;60419;48.880;18.036;2023-02-28T01:08:11;100096.50;;;-2.58;63.86
72428;BME280;60419;48.880;18.036;2023-02-28T01:10:56;100092.25;;;-2.81;64.39
72428;BME280;60419;48.880;18.036;2023-02-28T01:13:42;100095.00;;;-2.67;64.24
72428;BME280;60419;48.880;18.036;2023-02-28T01:16:28;100083.41;;;-2.66;64.14
72428;BME280;60419;48.880;18.036;2023-02-28T01:19:13;100105.78;;;-2.69;64.65
72428;BME280;60419;48.880;18.036;2023-02-28T01:22:03;100087.75;;;-2.87;64.54
72428;BME280;60419;48.880;18.036;2023-02-28T01:24:49;100100.19;;;-2.81;64.99
72428;BME280;60419;48.880;18.036;2023-02-28T01:27:34;100105.81;;;-2.62;63.94
72428;BME280;60419;48.880;18.036;2023-02-28T01:30:20;100105.41;;;-2.59;64.44
72428;BME280;60419;48.880;18.036;2023-02-28T01:33:06;100068.28;;;-2.79;63.97
72428;BME280;60419;48.880;18.036;2023-02-28T01:36:06;100089.69;;;-2.67;63.57
72428;BME280;60419;48.880;18.036;2023-02-28T01:38:52;100103.94;;;-2.68;63.77
72428;BME280;60419;48.880;18.036;2023-02-28T01:41:38;100097.16;;;-2.49;63.23
72428;BME280;60419;48.880;18.036;2023-02-28T01:47:50;100102.50;;;-2.71;64.07
72428;BME280;60419;48.880;18.036;2023-02-28T01:50:39;100089.25;;;-2.43;63.55
72428;BME280;60419;48.880;18.036;2023-02-28T01:53:31;100094.91;;;-2.81;64.28
72428;BME280;60419;48.880;18.036;2023-02-28T01:56:21;100102.41;;;-2.56;63.65
72428;BME280;60419;48.880;18.036;2023-02-28T01:59:09;100110.63;;;-2.72;64.78
72428;BME280;60419;48.880;18.036;2023-02-28T02:01:55;100099.38;;;-2.81;64.37
72428;BME280;60419;48.880;18.036;2023-02-28T02:04:50;100106.75;;;-2.42;63.09
72428;BME280;60419;48.880;18.036;2023-02-28T02:07:38;100094.47;;;-2.56;63.50
72428;BME280;60419;48.880;18.036;2023-02-28T02:10:39;100112.06;;;-2.42;64.06
72428;BME280;60419;48.880;18.036;2023-02-28T02:20:45;100112.47;;;-2.03;61.85
72428;BME280;60419;48.880;18.036;2023-02-28T02:32:49;100100.16;;;-2.24;62.92
72428;BME280;60419;48.880;18.036;2023-02-28T02:35:51;100104.59;;;-2.60;64.33
72428;BME280;60419;48.880;18.036;2023-02-28T02:38:52;100118.59;;;-2.38;63.30
72428;BME280;60419;48.880;18.036;2023-02-28T02:44:27;100120.88;;;-1.86;61.64
72428;BME280;60419;48.880;18.036;2023-02-28T02:47:17;100124.06;;;-1.56;61.43
72428;BME280;60419;48.880;18.036;2023-02-28T02:50:08;100128.50;;;-1.70;62.39
72428;BME280;60419;48.880;18.036;2023-02-28T02:52:57;100132.94;;;-0.96;60.56
72428;BME280;60419;48.880;18.036;2023-02-28T02:55:47;100127.56;;;-1.49;62.09
72428;BME280;60419;48.880;18.036;2023-02-28T02:58:40;100137.63;;;-0.71;60.81
72428;BME280;60419;48.880;18.036;2023-02-28T03:01:28;100134.16;;;-0.98;61.30
72428;BME280;60419;48.880;18.036;2023-02-28T03:04:22;100137.81;;;-0.80;60.98
72428;BME280;60419;48.880;18.036;2023-02-28T03:07:09;100142.91;;;-1.11;61.38
72428;BME280;60419;48.880;18.036;2023-02-28T03:09:56;100139.63;;;-1.27;62.15
72428;BME280;60419;48.880;18.036;2023-02-28T03:12:49;100135.16;;;-0.93;61.17
72428;BME280;60419;48.880;18.036;2023-02-28T03:19:32;100136.81;;;-0.72;60.20
72428;BME280;60419;48.880;18.036;2023-02-28T03:25:51;100140.25;;;-0.71;60.98
72428;BME280;60419;48.880;18.036;2023-02-28T03:28:27;100131.06;;;-0.29;59.84
72428;BME280;60419;48.880;18.036;2023-02-28T03:31:21;100101.22;;;-0.24;58.78
72428;BME280;60419;48.880;18.036;2023-02-28T03:34:12;100142.41;;;0.05;59.46
72428;BME280;60419;48.880;18.036;2023-02-28T03:37:05;100138.19;;;-0.23;59.37
72428;BME280;60419;48.880;18.036;2023-02-28T03:39:59;100133.16;;;0.14;58.56
72428;BME280;60419;48.880;18.036;2023-02-28T03:42:49;100143.16;;;0.19;58.32
72428;BME280;60419;48.880;18.036;2023-02-28T03:45:38;100117.34;;;-0.19;59.08
72428;BME280;60419;48.880;18.036;2023-02-28T03:48:33;100143.94;;;-0.46;59.58
72428;BME280;60419;48.880;18.036;2023-02-28T03:51:23;100131.31;;;-0.50;59.72
72428;BME280;60419;48.880;18.036;2023-02-28T03:54:13;100137.16;;;-0.28;60.42
72428;BME280;60419;48.880;18.036;2023-02-28T03:57:13;100139.81;;;-0.28;60.32
72428;BME280;60419;48.880;18.036;2023-02-28T04:02:52;100148.00;;;-0.43;60.69
72428;BME280;60419;48.880;18.036;2023-02-28T04:05:49;100149.59;;;-0.22;58.52
72428;BME280;60419;48.880;18.036;2023-02-28T04:08:35;100145.13;;;-0.35;58.13
72428;BME280;60419;48.880;18.036;2023-02-28T04:14:12;100143.00;;;-1.59;60.53
72428;BME280;60419;48.880;18.036;2023-02-28T04:16:58;100132.31;;;-1.79;61.69
72428;BME280;60419;48.880;18.036;2023-02-28T04:19:43;100131.41;;;-1.52;60.32
72428;BME280;60419;48.880;18.036;2023-02-28T04:22:29;100142.56;;;-1.63;61.08
72428;BME280;60419;48.880;18.036;2023-02-28T04:25:14;100140.09;;;-2.13;61.93
72428;BME280;60419;48.880;18.036;2023-02-28T04:27:59;100143.50;;;-2.25;62.69
72428;BME280;60419;48.880;18.036;2023-02-28T04:30:45;100156.69;;;-1.42;60.28
72428;BME280;60419;48.880;18.036;2023-02-28T04:33:32;100159.97;;;-1.40;61.82
72428;BME280;60419;48.880;18.036;2023-02-28T04:36:18;100152.53;;;-0.84;60.70
72428;BME280;60419;48.880;18.036;2023-02-28T04:39:03;100153.16;;;-0.82;60.54
72428;BME280;60419;48.880;18.036;2023-02-28T04:41:49;100156.78;;;-0.56;59.71
72428;BME280;60419;48.880;18.036;2023-02-28T04:44:35;100165.97;;;-0.19;58.35
72428;BME280;60419;48.880;18.036;2023-02-28T04:47:20;100169.41;;;0.02;57.31
72428;BME280;60419;48.880;18.036;2023-02-28T04:50:06;100163.28;;;-0.12;57.27
72428;BME280;60419;48.880;18.036;2023-02-28T04:52:51;100164.03;;;0.08;57.04
72428;BME280;60419;48.880;18.036;2023-02-28T04:55:36;100166.50;;;0.03;56.93
72428;BME280;60419;48.880;18.036;2023-02-28T04:58:25;100171.78;;;0.23;56.55
72428;BME280;60419;48.880;18.036;2023-02-28T05:01:20;100168.69;;;0.20;56.07
72428;BME280;60419;48.880;18.036;2023-02-28T05:04:06;100172.53;;;-0.35;57.13
72428;BME280;60419;48.880;18.036;2023-02-28T05:06:51;100164.19;;;-1.59;60.02
72428;BME280;60419;48.880;18.036;2023-02-28T05:09:36;100158.31;;;-2.38;62.64
72428;BME280;60419;48.880;18.036;2023-02-28T05:12:22;100166.00;;;-2.43;63.24
72428;BME280;60419;48.880;18.036;2023-02-28T05:15:12;100138.13;;;-2.39;62.26
72428;BME280;60419;48.880;18.036;2023-02-28T05:17:58;100163.69;;;-2.24;62.91
72428;BME280;60419;48.880;18.036;2023-02-28T05:20:43;100170.41;;;-2.22;62.96
72428;BME280;60419;48.880;18.036;2023-02-28T05:23:28;100171.06;;;-1.72;61.43
72428;BME280;60419;48.880;18.036;2023-02-28T05:26:14;100175.50;;;-2.20;61.54
72428;BME280;60419;48.880;18.036;2023-02-28T05:28:59;100177.59;;;-1.74;61.54
72428;BME280;60419;48.880;18.036;2023-02-28T05:31:45;100178.44;;;-2.08;62.47
72428;BME280;60419;48.880;18.036;2023-02-28T05:34:30;100172.22;;;-1.88;61.84
72428;BME280;60419;48.880;18.036;2023-02-28T05:37:15;100178.97;;;-1.85;61.14
72428;BME280;60419;48.880;18.036;2023-02-28T05:40:01;100165.69;;;-1.92;61.22
72428;BME280;60419;48.880;18.036;2023-02-28T05:42:50;100188.81;;;-1.72;62.21
72428;BME280;60419;48.880;18.036;2023-02-28T05:45:35;100185.34;;;-1.73;62.04
72428;BME280;60419;48.880;18.036;2023-02-28T05:48:20;100188.00;;;-1.73;62.19
72428;BME280;60419;48.880;18.036;2023-02-28T05:51:06;100195.94;;;-1.18;61.00
72428;BME280;60419;48.880;18.036;2023-02-28T05:53:52;100189.59;;;-1.17;60.14
72428;BME280;60419;48.880;18.036;2023-02-28T05:56:37;100213.88;;;-1.13;60.23
72428;BME280;60419;48.880;18.036;2023-02-28T05:59:25;100202.13;;;-0.84;63.71
72428;BME280;60419;48.880;18.036;2023-02-28T06:02:15;100198.03;;;-0.67;60.17
72428;BME280;60419;48.880;18.036;2023-02-28T06:05:01;100205.47;;;-1.30;60.89
72428;BME280;60419;48.880;18.036;2023-02-28T06:07:46;100204.63;;;-1.37;61.59
72428;BME280;60419;48.880;18.036;2023-02-28T06:10:32;100207.88;;;-1.42;61.81
72428;BME280;60419;48.880;18.036;2023-02-28T06:13:18;100215.88;;;-1.35;62.25
72428;BME280;60419;48.880;18.036;2023-02-28T06:16:04;100213.66;;;-1.25;61.72
72428;BME280;60419;48.880;18.036;2023-02-28T06:18:49;100215.31;;;-1.17;61.27
72428;BME280;60419;48.880;18.036;2023-02-28T06:21:35;100217.16;;;-1.11;61.74
72428;BME280;60419;48.880;18.036;2023-02-28T06:24:22;100225.66;;;-1.36;61.76
72428;BME280;60419;48.880;18.036;2023-02-28T06:27:08;100229.44;;;-0.97;61.58
72428;BME280;60419;48.880;18.036;2023-02-28T06:29:54;100232.75;;;-0.82;60.81
72428;BME280;60419;48.880;18.036;2023-02-28T06:32:40;100233.75;;;-0.69;61.11
72428;BME280;60419;48.880;18.036;2023-02-28T06:35:26;100232.66;;;-1.08;61.02
72428;BME280;60419;48.880;18.036;2023-02-28T06:38:11;100230.31;;;-0.63;61.09
72428;BME280;60419;48.880;18.036;2023-02-28T06:40:58;100238.50;;;-0.58;60.49
72428;BME280;60419;48.880;18.036;2023-02-28T06:43:44;100226.09;;;-2.37;62.93
72428;BME280;60419;48.880;18.036;2023-02-28T06:46:29;100237.59;;;-1.53;62.43
72428;BME280;60419;48.880;18.036;2023-02-28T06:49:15;100237.03;;;-0.67;65.60
72428;BME280;60419;48.880;18.036;2023-02-28T06:52:01;100239.28;;;-0.71;60.34
72428;BME280;60419;48.880;18.036;2023-02-28T06:54:46;100231.53;;;-0.79;60.37
72428;BME280;60419;48.880;18.036;2023-02-28T06:57:32;100237.03;;;-0.41;59.79
72428;BME280;60419;48.880;18.036;2023-02-28T07:00:19;100240.91;;;-0.57;60.28
72428;BME280;60419;48.880;18.036;2023-02-28T07:03:04;100233.38;;;-0.40;59.76
72428;BME280;60419;48.880;18.036;2023-02-28T07:05:49;100235.16;;;-1.00;59.40
72428;BME280;60419;48.880;18.036;2023-02-28T07:08:36;100233.88;;;-2.28;63.94
72428;BME280;60419;48.880;18.036;2023-02-28T07:11:23;100235.81;;;-2.87;65.36
72428;BME280;60419;48.880;18.036;2023-02-28T07:14:10;100239.16;;;-2.78;65.76
72428;BME280;60419;48.880;18.036;2023-02-28T07:16:55;100235.44;;;-2.62;65.11
72428;BME280;60419;48.880;18.036;2023-02-28T07:19:41;100241.91;;;-2.15;63.77
72428;BME280;60419;48.880;18.036;2023-02-28T07:22:26;100249.63;;;-2.20;64.76
72428;BME280;60419;48.880;18.036;2023-02-28T07:25:11;100241.50;;;-1.84;63.59
72428;BME280;60419;48.880;18.036;2023-02-28T07:27:57;100235.50;;;-2.56;64.86
72428;BME280;60419;48.880;18.036;2023-02-28T07:30:44;100231.19;;;-1.72;62.76
72428;BME280;60419;48.880;18.036;2023-02-28T07:33:29;100253.06;;;-1.15;61.34
72428;BME280;60419;48.880;18.036;2023-02-28T07:36:16;100256.78;;;-1.51;62.30
72428;BME280;60419;48.880;18.036;2023-02-28T07:39:03;100251.78;;;-2.02;63.27
72428;BME280;60419;48.880;18.036;2023-02-28T07:41:49;100256.13;;;-1.60;61.83
72428;BME280;60419;48.880;18.036;2023-02-28T07:44:34;100262.53;;;-1.41;61.85
72428;BME280;60419;48.880;18.036;2023-02-28T07:47:20;100251.22;;;-1.15;61.34
72428;BME280;60419;48.880;18.036;2023-02-28T07:50:07;100248.53;;;-1.28;62.02
72428;BME280;60419;48.880;18.036;2023-02-28T07:52:53;100259.97;;;-1.14;62.51
72428;BME280;60419;48.880;18.036;2023-02-28T07:55:38;100259.00;;;-1.07;62.48
72428;BME280;60419;48.880;18.036;2023-02-28T07:58:24;100256.19;;;-0.85;61.16
72428;BME280;60419;48.880;18.036;2023-02-28T08:01:11;100252.56;;;-1.32;60.95
72428;BME280;60419;48.880;18.036;2023-02-28T08:03:56;100267.47;;;-1.31;60.93
72428;BME280;60419;48.880;18.036;2023-02-28T08:06:42;100260.66;;;-0.99;60.21
72428;BME280;60419;48.880;18.036;2023-02-28T08:09:27;100268.88;;;-0.74;58.92
72428;BME280;60419;48.880;18.036;2023-02-28T08:12:12;100254.63;;;-0.40;59.78
72428;BME280;60419;48.880;18.036;2023-02-28T08:14:58;100260.75;;;-1.34;59.98
72428;BME280;60419;48.880;18.036;2023-02-28T08:17:43;100265.88;;;-1.26;61.61
72428;BME280;60419;48.880;18.036;2023-02-28T08:20:28;100237.19;;;-1.50;60.26
72428;BME280;60419;48.880;18.036;2023-02-28T08:23:14;100264.53;;;-0.95;59.67
72428;BME280;60419;48.880;18.036;2023-02-28T08:25:59;100263.53;;;-0.87;58.98
72428;BME280;60419;48.880;18.036;2023-02-28T08:28:45;100268.47;;;-1.32;60.14
72428;BME280;60419;48.880;18.036;2023-02-28T08:31:30;100275.44;;;-1.25;60.28
72428;BME280;60419;48.880;18.036;2023-02-28T08:34:16;100267.97;;;-1.08;60.08
72428;BME280;60419;48.880;18.036;2023-02-28T08:37:02;100271.97;;;-1.25;59.87
72428;BME280;60419;48.880;18.036;2023-02-28T08:39:47;100274.50;;;-1.04;60.13
72428;BME280;60419;48.880;18.036;2023-02-28T08:42:32;100266.22;;;-0.67;58.51
72428;BME280;60419;48.880;18.036;2023-02-28T08:45:18;100275.25;;;-0.02;56.92
72428;BME280;60419;48.880;18.036;2023-02-28T08:48:03;100271.09;;;-0.84;57.89
72428;BME280;60419;48.880;18.036;2023-02-28T08:51:00;100273.63;;;-0.23;57.30
72428;BME280;60419;48.880;18.036;2023-02-28T08:53:45;100276.22;;;0.17;56.62
72428;BME280;60419;48.880;18.036;2023-02-28T08:56:31;100284.56;;;0.47;55.66
72428;BME280;60419;48.880;18.036;2023-02-28T08:59:16;100279.56;;;0.71;54.86
72428;BME280;60419;48.880;18.036;2023-02-28T09:02:01;100279.88;;;0.94;55.33
72428;BME280;60419;48.880;18.036;2023-02-28T09:04:47;100279.56;;;0.78;54.34
72428;BME280;60419;48.880;18.036;2023-02-28T09:07:33;100276.88;;;1.23;54.00
72428;BME280;60419;48.880;18.036;2023-02-28T09:10:18;100269.03;;;1.66;52.79
72428;BME280;60419;48.880;18.036;2023-02-28T09:13:06;100270.25;;;1.89;51.67
72428;BME280;60419;48.880;18.036;2023-02-28T09:15:52;100265.66;;;2.02;49.46
72428;BME280;60419;48.880;18.036;2023-02-28T09:18:38;100243.31;;;1.97;50.04
72428;BME280;60419;48.880;18.036;2023-02-28T09:21:24;100269.63;;;0.98;51.90
72428;BME280;60419;48.880;18.036;2023-02-28T09:24:10;100280.66;;;0.43;52.81
72428;BME280;60419;48.880;18.036;2023-02-28T09:26:58;100277.19;;;0.49;52.40
72428;BME280;60419;48.880;18.036;2023-02-28T09:29:43;100270.06;;;0.30;53.38
72428;BME280;60419;48.880;18.036;2023-02-28T09:32:29;100265.78;;;0.36;53.02
72428;BME280;60419;48.880;18.036;2023-02-28T09:35:14;100265.88;;;-0.24;54.09
72428;BME280;60419;48.880;18.036;2023-02-28T09:38:01;100271.13;;;0.36;53.36
72428;BME280;60419;48.880;18.036;2023-02-28T09:40:52;100269.06;;;0.89;51.80
72428;BME280;60419;48.880;18.036;2023-02-28T09:43:41;100265.75;;;0.42;53.01
72428;BME280;60419;48.880;18.036;2023-02-28T09:46:40;100263.75;;;0.89;50.78
72428;BME280;60419;48.880;18.036;2023-02-28T09:49:41;100271.38;;;1.17;50.83
72428;BME280;60419;48.880;18.036;2023-02-28T09:52:29;100266.88;;;0.73;51.23
72428;BME280;60419;48.880;18.036;2023-02-28T09:55:31;100259.94;;;1.10;50.03
72428;BME280;60419;48.880;18.036;2023-02-28T09:58:39;100263.22;;;1.12;49.57
72428;BME280;60419;48.880;18.036;2023-02-28T10:01:42;100261.81;;;1.10;49.69
72428;BME280;60419;48.880;18.036;2023-02-28T10:04:43;100255.41;;;1.99;48.71
72428;BME280;60419;48.880;18.036;2023-02-28T10:10:41;100260.47;;;2.81;46.37
72428;BME280;60419;48.880;18.036;2023-02-28T10:13:34;100257.84;;;2.26;46.81
72428;BME280;60419;48.880;18.036;2023-02-28T10:16:25;100260.34;;;2.21;47.71
72428;BME280;60419;48.880;18.036;2023-02-28T10:19:20;100260.53;;;2.93;45.92
72428;BME280;60419;48.880;18.036;2023-02-28T10:22:24;100264.56;;;2.84;45.75
72428;BME280;60419;48.880;18.036;2023-02-28T10:25:28;100260.84;;;2.66;45.88
72428;BME280;60419;48.880;18.036;2023-02-28T10:28:15;100248.78;;;2.64;45.75
72428;BME280;60419;48.880;18.036;2023-02-28T10:31:03;100249.09;;;3.04;44.71
72428;BME280;60419;48.880;18.036;2023-02-28T10:33:48;100245.81;;;3.32;43.68
72428;BME280;60419;48.880;18.036;2023-02-28T10:36:33;100234.84;;;3.52;43.90
72428;BME280;60419;48.880;18.036;2023-02-28T10:39:40;100250.44;;;3.79;42.51
72428;BME280;60419;48.880;18.036;2023-02-28T10:42:27;100239.50;;;3.57;43.34
72428;BME280;60419;48.880;18.036;2023-02-28T10:45:16;100234.72;;;4.41;42.42
72428;BME280;60419;48.880;18.036;2023-02-28T10:50:59;100235.47;;;4.01;42.36
72428;BME280;60419;48.880;18.036;2023-02-28T10:53:47;100230.91;;;4.37;42.08
72428;BME280;60419;48.880;18.036;2023-02-28T10:56:33;100226.50;;;4.19;41.73
72428;BME280;60419;48.880;18.036;2023-02-28T10:59:30;100222.34;;;4.52;41.19
72428;BME280;60419;48.880;18.036;2023-02-28T11:02:34;100230.66;;;4.15;41.85
72428;BME280;60419;48.880;18.036;2023-02-28T11:08:16;100220.94;;;4.09;43.14
72428;BME280;60419;48.880;18.036;2023-02-28T11:11:04;100213.28;;;4.53;42.48
72428;BME280;60419;48.880;18.036;2023-02-28T11:13:56;100212.56;;;4.86;41.04
72428;BME280;60419;48.880;18.036;2023-02-28T11:16:42;100216.44;;;4.50;41.77
72428;BME280;60419;48.880;18.036;2023-02-28T11:19:39;100204.50;;;4.69;41.68
72428;BME280;60419;48.880;18.036;2023-02-28T11:22:28;100205.34;;;3.94;45.30
72428;BME280;60419;48.880;18.036;2023-02-28T11:25:32;100207.72;;;4.43;44.20
72428;BME280;60419;48.880;18.036;2023-02-28T11:28:34;100206.81;;;4.25;43.92
72428;BME280;60419;48.880;18.036;2023-02-28T11:31:20;100199.97;;;3.35;44.19
72428;BME280;60419;48.880;18.036;2023-02-28T11:34:25;100185.13;;;3.51;43.87
72428;BME280;60419;48.880;18.036;2023-02-28T11:37:15;100185.84;;;4.46;41.67
72428;BME280;60419;48.880;18.036;2023-02-28T11:40:01;100173.72;;;4.84;40.56
72428;BME280;60419;48.880;18.036;2023-02-28T11:43:01;100161.72;;;4.05;40.20
72428;BME280;60419;48.880;18.036;2023-02-28T11:58:45;100159.91;;;5.04;39.45
72428;BME280;60419;48.880;18.036;2023-02-28T12:02:00;100158.19;;;4.69;39.52
72428;BME280;60419;48.880;18.036;2023-02-28T12:11:09;100152.09;;;3.22;43.07
72428;BME280;60419;48.880;18.036;2023-02-28T12:14:14;100139.41;;;4.12;41.78
72428;BME280;60419;48.880;18.036;2023-02-28T12:17:14;100142.00;;;3.71;42.46
72428;BME280;60419;48.880;18.036;2023-02-28T12:20:17;100136.69;;;3.36;43.69
72428;BME280;60419;48.880;18.036;2023-02-28T12:26:22;100133.44;;;4.33;42.24
72428;BME280;60419;48.880;18.036;2023-02-28T12:29:16;100126.22;;;4.62;41.55
72428;BME280;60419;48.880;18.036;2023-02-28T12:32:09;100124.38;;;5.08;40.45
72428;BME280;60419;48.880;18.036;2023-02-28T12:35:16;100135.34;;;4.09;41.75
72428;BME280;60419;48.880;18.036;2023-02-28T12:38:23;100133.41;;;3.81;42.09
72428;BME280;60419;48.880;18.036;2023-02-28T12:41:15;100127.00;;;4.34;41.23
72428;BME280;60419;48.880;18.036;2023-02-28T12:44:06;100125.47;;;3.98;42.56
72428;BME280;60419;48.880;18.036;2023-02-28T12:46:57;100110.69;;;4.19;41.84
72428;BME280;60419;48.880;18.036;2023-02-28T12:49:49;100113.69;;;4.22;42.31
72428;BME280;60419;48.880;18.036;2023-02-28T12:55:58;100102.06;;;5.03;40.19
72428;BME280;60419;48.880;18.036;2023-02-28T12:58:55;100101.81;;;4.59;41.10
72428;BME280;60419;48.880;18.036;2023-02-28T13:02:00;100099.16;;;4.76;41.57
72428;BME280;60419;48.880;18.036;2023-02-28T13:05:02;100086.44;;;4.83;40.94
72428;BME280;60419;48.880;18.036;2023-02-28T13:11:06;100089.22;;;5.39;39.37
72428;BME280;60419;48.880;18.036;2023-02-28T13:14:06;100088.75;;;5.81;38.24
72428;BME280;60419;48.880;18.036;2023-02-28T13:22:44;100067.97;;;5.15;40.06
72428;BME280;60419;48.880;18.036;2023-02-28T13:37:44;100059.41;;;6.18;38.57
72428;BME280;60419;48.880;18.036;2023-02-28T13:40:33;100057.38;;;5.81;39.58
72428;BME280;60419;48.880;18.036;2023-02-28T13:49:35;100054.56;;;6.15;39.17
72428;BME280;60419;48.880;18.036;2023-02-28T13:52:23;100056.44;;;5.70;39.81
72428;BME280;60419;48.880;18.036;2023-02-28T13:55:25;100041.91;;;5.27;40.97
72428;BME280;60419;48.880;18.036;2023-02-28T14:01:48;100048.28;;;4.76;41.84
72428;BME280;60419;48.880;18.036;2023-02-28T14:07:50;100046.25;;;4.95;40.65
72428;BME280;60419;48.880;18.036;2023-02-28T14:10:44;100043.91;;;4.86;41.62
72428;BME280;60419;48.880;18.036;2023-02-28T14:13:42;100039.00;;;5.12;41.13
72428;BME280;60419;48.880;18.036;2023-02-28T14:16:44;100045.75;;;6.47;39.32
72428;BME280;60419;48.880;18.036;2023-02-28T14:19:32;100037.28;;;5.62;40.30
72428;BME280;60419;48.880;18.036;2023-02-28T14:22:55;100037.91;;;5.69;39.98
72428;BME280;60419;48.880;18.036;2023-02-28T14:32:13;100042.31;;;4.68;42.33
72428;BME280;60419;48.880;18.036;2023-02-28T14:35:21;100043.50;;;5.45;40.87
72428;BME280;60419;48.880;18.036;2023-02-28T14:38:20;100038.34;;;6.05;40.08
72428;BME280;60419;48.880;18.036;2023-02-28T14:41:15;100039.34;;;6.80;39.92
72428;BME280;60419;48.880;18.036;2023-02-28T14:44:11;100009.56;;;7.66;37.82
72428;BME280;60419;48.880;18.036;2023-02-28T14:47:00;100016.41;;;6.99;37.78
72428;BME280;60419;48.880;18.036;2023-02-28T14:49:51;100028.09;;;6.83;37.97
72428;BME280;60419;48.880;18.036;2023-02-28T14:52:36;100020.88;;;6.88;37.06
72428;BME280;60419;48.880;18.036;2023-02-28T14:55:26;100020.75;;;6.41;38.58
72428;BME280;60419;48.880;18.036;2023-02-28T14:58:22;100020.38;;;6.32;39.47
72428;BME280;60419;48.880;18.036;2023-02-28T15:01:10;100019.03;;;5.20;40.83
72428;BME280;60419;48.880;18.036;2023-02-28T15:04:05;100009.47;;;6.12;40.10
72428;BME280;60419;48.880;18.036;2023-02-28T15:07:13;100018.16;;;6.51;38.37
72428;BME280;60419;48.880;18.036;2023-02-28T15:10:25;100018.25;;;6.61;38.78
72428;BME280;60419;48.880;18.036;2023-02-28T15:13:14;100027.19;;;5.47;40.55
72428;BME280;60419;48.880;18.036;2023-02-28T15:16:03;100011.97;;;5.74;39.74
72428;BME280;60419;48.880;18.036;2023-02-28T15:21:39;100021.97;;;5.18;41.38
72428;BME280;60419;48.880;18.036;2023-02-28T15:24:39;100026.25;;;5.58;41.05
72428;BME280;60419;48.880;18.036;2023-02-28T15:27:31;99985.63;;;5.44;39.99
72428;BME280;60419;48.880;18.036;2023-02-28T15:30:25;100019.28;;;5.79;40.24
72428;BME280;60419;48.880;18.036;2023-02-28T15:33:20;100015.97;;;5.94;40.14
72428;BME280;60419;48.880;18.036;2023-02-28T15:36:13;100019.75;;;5.54;40.04
72428;BME280;60419;48.880;18.036;2023-02-28T15:39:00;100002.38;;;5.78;39.74
72428;BME280;60419;48.880;18.036;2023-02-28T15:41:45;100013.91;;;5.79;40.26
72428;BME280;60419;48.880;18.036;2023-02-28T15:44:34;100007.53;;;5.02;41.68
72428;BME280;60419;48.880;18.036;2023-02-28T15:47:25;100016.94;;;4.71;43.44
72428;BME280;60419;48.880;18.036;2023-02-28T15:50:13;100008.94;;;4.42;43.80
72428;BME280;60419;48.880;18.036;2023-02-28T15:53:00;100009.75;;;4.43;43.75
72428;BME280;60419;48.880;18.036;2023-02-28T15:55:52;100010.41;;;5.18;42.92
72428;BME280;60419;48.880;18.036;2023-02-28T15:58:38;100014.78;;;5.63;41.37
72428;BME280;60419;48.880;18.036;2023-02-28T16:01:26;100010.91;;;5.53;40.69
72428;BME280;60419;48.880;18.036;2023-02-28T16:04:18;100019.09;;;6.99;65.64
72428;BME280;60419;48.880;18.036;2023-02-28T16:07:06;100019.44;;;5.11;42.55
72428;BME280;60419;48.880;18.036;2023-02-28T16:09:57;100014.91;;;4.95;43.20
72428;BME280;60419;48.880;18.036;2023-02-28T16:12:42;100018.53;;;4.89;47.67
72428;BME280;60419;48.880;18.036;2023-02-28T16:15:29;100015.69;;;5.29;48.18
72428;BME280;60419;48.880;18.036;2023-02-28T16:18:16;100001.03;;;4.19;44.30
72428;BME280;60419;48.880;18.036;2023-02-28T16:21:01;100007.94;;;4.03;45.82
72428;BME280;60419;48.880;18.036;2023-02-28T16:23:46;100021.00;;;3.47;45.67
72428;BME280;60419;48.880;18.036;2023-02-28T16:26:32;100018.47;;;3.41;45.40
72428;BME280;60419;48.880;18.036;2023-02-28T16:29:34;100013.72;;;3.31;45.92
72428;BME280;60419;48.880;18.036;2023-02-28T16:32:20;100014.97;;;3.16;47.48
72428;BME280;60419;48.880;18.036;2023-02-28T16:35:09;100022.41;;;3.38;47.18